Skip Navigation LinksHome page > Weather > Current weather Skip Navigation Links

Current Weather

Heathrow, London

For information only: do not use for flight planning or navigation.
Latest weather
Observation time Friday, March 23, 2018 6:50 AM GMT
Local time Friday, March 23, 2018 7:18 AM GMT
Flight conditions Instrument Meteorological Conditions
Wind direction South-Southwest (210°)
Wind speed 14 mph
Visibility 6.2 mi.
Sky condition
Ceiling 700 ft. broken clouds
Cloud layer broken clouds 700 ft.
Cloud layer broken clouds 1,200 ft.
Cloud layer overcast 2,200 ft.
Temperature 43°F
Dewpoint 43°F
Altimeter 29.59 in.Hg
Derived measurements
Relative humidity 100%
Wind chill 36°F
Density altitude -566 ft.
Corrected report.
Fully automated report.
METAR COR EGLL 230650Z AUTO 21012KT 9999 BKN007 BKN012 OVC022 06/06 Q1002 BECMG FEW007


Location code

InnerDrive.Weather 4.0.6615.0 Release CLR 4.0.30319.42000
Copyright ©2018 Inner Drive Technology. All rights reserved. Portions Copyright ©1986-2018 David Braverman.

Find weather

Site navigation

Skip Navigation Links

Place info

Page info

PayPal - The safer, easier way to pay online!

Return home.

Copyright ©2018 Inner Drive Technology. Purveyors of fine, hand-crafted computer software. Page printed 2018-03-23T07:18:13 UTC.